sensor_id;sensor_type;location;lat;lon;timestamp;pressure;altitude;pressure_sealevel;temperature;humidity
52651;BME280;38537;47.226;39.702;2023-02-22T00:01:54;98793.06;;;7.43;59.90
52651;BME280;38537;47.226;39.702;2023-02-22T00:04:37;98830.16;;;7.65;59.41
52651;BME280;38537;47.226;39.702;2023-02-22T00:07:07;98826.22;;;7.83;59.32
52651;BME280;38537;47.226;39.702;2023-02-22T00:09:34;98814.94;;;7.88;59.12
52651;BME280;38537;47.226;39.702;2023-02-22T00:12:01;98825.09;;;7.67;59.30
52651;BME280;38537;47.226;39.702;2023-02-22T00:14:29;98846.16;;;7.33;59.30
52651;BME280;38537;47.226;39.702;2023-02-22T00:16:56;98856.56;;;7.28;60.15
52651;BME280;38537;47.226;39.702;2023-02-22T00:19:26;98821.28;;;7.11;60.34
52651;BME280;38537;47.226;39.702;2023-02-22T00:21:57;98841.56;;;7.46;60.23
52651;BME280;38537;47.226;39.702;2023-02-22T00:24:25;98844.53;;;7.49;59.96
52651;BME280;38537;47.226;39.702;2023-02-22T00:26:55;98844.34;;;7.80;59.14
52651;BME280;38537;47.226;39.702;2023-02-22T00:29:23;98841.91;;;7.96;59.07
52651;BME280;38537;47.226;39.702;2023-02-22T00:31:52;98853.16;;;8.08;58.58
52651;BME280;38537;47.226;39.702;2023-02-22T00:34:21;98860.03;;;8.19;58.16
52651;BME280;38537;47.226;39.702;2023-02-22T00:36:50;98865.94;;;7.83;58.52
52651;BME280;38537;47.226;39.702;2023-02-22T00:39:18;98842.41;;;7.98;59.23
52651;BME280;38537;47.226;39.702;2023-02-22T00:41:45;98842.06;;;7.91;58.69
52651;BME280;38537;47.226;39.702;2023-02-22T00:44:12;98832.75;;;7.96;58.19
52651;BME280;38537;47.226;39.702;2023-02-22T00:46:40;98857.28;;;7.85;58.82
52651;BME280;38537;47.226;39.702;2023-02-22T00:49:07;98824.09;;;7.54;58.80
52651;BME280;38537;47.226;39.702;2023-02-22T00:51:34;98826.72;;;7.33;59.25
52651;BME280;38537;47.226;39.702;2023-02-22T00:54:02;98844.94;;;7.17;59.74
52651;BME280;38537;47.226;39.702;2023-02-22T00:56:32;98851.69;;;7.42;60.05
52651;BME280;38537;47.226;39.702;2023-02-22T00:59:00;98847.13;;;7.63;59.12
52651;BME280;38537;47.226;39.702;2023-02-22T01:01:30;98861.84;;;7.64;58.91
52651;BME280;38537;47.226;39.702;2023-02-22T01:03:57;98835.69;;;7.47;59.09
52651;BME280;38537;47.226;39.702;2023-02-22T01:06:25;98832.63;;;7.57;58.86
52651;BME280;38537;47.226;39.702;2023-02-22T01:08:52;98847.63;;;7.91;58.81
52651;BME280;38537;47.226;39.702;2023-02-22T01:11:20;98860.53;;;8.04;58.18
52651;BME280;38537;47.226;39.702;2023-02-22T01:13:48;98836.00;;;8.15;57.86
52651;BME280;38537;47.226;39.702;2023-02-22T01:16:15;98834.06;;;7.89;57.40
52651;BME280;38537;47.226;39.702;2023-02-22T01:18:42;98841.88;;;8.05;57.84
52651;BME280;38537;47.226;39.702;2023-02-22T01:21:10;98846.47;;;8.09;57.70
52651;BME280;38537;47.226;39.702;2023-02-22T01:23:40;98843.03;;;8.12;57.80
52651;BME280;38537;47.226;39.702;2023-02-22T01:26:08;98855.44;;;8.23;57.69
52651;BME280;38537;47.226;39.702;2023-02-22T01:28:36;98864.78;;;8.19;57.46
52651;BME280;38537;47.226;39.702;2023-02-22T01:31:04;98854.31;;;8.16;57.78
52651;BME280;38537;47.226;39.702;2023-02-22T01:33:32;98853.97;;;8.17;57.56
52651;BME280;38537;47.226;39.702;2023-02-22T01:35:59;98851.69;;;8.11;57.61
52651;BME280;38537;47.226;39.702;2023-02-22T01:38:26;98872.63;;;8.08;57.56
52651;BME280;38537;47.226;39.702;2023-02-22T01:40:54;98844.03;;;7.99;57.46
52651;BME280;38537;47.226;39.702;2023-02-22T01:43:28;98867.56;;;8.10;57.58
52651;BME280;38537;47.226;39.702;2023-02-22T01:46:20;98861.19;;;8.18;57.30
52651;BME280;38537;47.226;39.702;2023-02-22T01:49:00;98844.34;;;8.15;57.19
52651;BME280;38537;47.226;39.702;2023-02-22T01:51:49;98842.38;;;8.07;57.45
52651;BME280;38537;47.226;39.702;2023-02-22T01:54:29;98860.84;;;8.03;57.28
52651;BME280;38537;47.226;39.702;2023-02-22T01:59:32;98864.41;;;8.29;56.98
52651;BME280;38537;47.226;39.702;2023-02-22T02:02:00;98853.00;;;8.22;56.87
52651;BME280;38537;47.226;39.702;2023-02-22T02:04:27;98904.53;;;8.37;56.86
52651;BME280;38537;47.226;39.702;2023-02-22T02:06:58;98884.72;;;8.21;56.90
52651;BME280;38537;47.226;39.702;2023-02-22T02:09:36;98899.78;;;8.20;56.89
52651;BME280;38537;47.226;39.702;2023-02-22T02:12:07;98885.38;;;8.09;57.11
52651;BME280;38537;47.226;39.702;2023-02-22T02:14:35;98892.09;;;8.08;57.21
52651;BME280;38537;47.226;39.702;2023-02-22T02:17:08;98899.78;;;8.11;57.07
52651;BME280;38537;47.226;39.702;2023-02-22T02:33:32;98879.34;;;6.99;58.91
52651;BME280;38537;47.226;39.702;2023-02-22T02:38:43;98908.22;;;6.98;58.84
52651;BME280;38537;47.226;39.702;2023-02-22T02:41:16;98923.47;;;7.09;59.05
52651;BME280;38537;47.226;39.702;2023-02-22T02:46:47;98911.91;;;7.24;59.05
52651;BME280;38537;47.226;39.702;2023-02-22T02:49:24;98909.97;;;7.25;58.77
52651;BME280;38537;47.226;39.702;2023-02-22T02:51:54;98895.44;;;7.28;58.95
52651;BME280;38537;47.226;39.702;2023-02-22T02:54:22;98910.00;;;7.42;58.23
52651;BME280;38537;47.226;39.702;2023-02-22T02:56:51;98924.03;;;7.37;58.57
52651;BME280;38537;47.226;39.702;2023-02-22T02:59:31;98930.91;;;7.39;58.23
52651;BME280;38537;47.226;39.702;2023-02-22T03:07:55;98930.31;;;7.68;57.91
52651;BME280;38537;47.226;39.702;2023-02-22T03:10:55;98941.28;;;7.73;57.58
52651;BME280;38537;47.226;39.702;2023-02-22T03:16:48;98951.53;;;6.76;58.47
52651;BME280;38537;47.226;39.702;2023-02-22T03:19:36;98931.94;;;6.19;59.50
52651;BME280;38537;47.226;39.702;2023-02-22T03:22:15;98905.38;;;5.82;60.09
52651;BME280;38537;47.226;39.702;2023-02-22T03:25:07;98939.34;;;5.74;60.25
52651;BME280;38537;47.226;39.702;2023-02-22T03:27:45;98955.19;;;5.60;60.57
52651;BME280;38537;47.226;39.702;2023-02-22T03:30:21;98943.69;;;5.53;60.55
52651;BME280;38537;47.226;39.702;2023-02-22T03:33:04;98933.53;;;5.48;61.22
52651;BME280;38537;47.226;39.702;2023-02-22T03:35:47;98967.69;;;5.58;61.02
52651;BME280;38537;47.226;39.702;2023-02-22T03:38:19;98942.69;;;5.35;60.75
52651;BME280;38537;47.226;39.702;2023-02-22T03:40:53;98965.75;;;5.58;60.75
52651;BME280;38537;47.226;39.702;2023-02-22T03:43:29;98963.88;;;5.67;60.51
52651;BME280;38537;47.226;39.702;2023-02-22T03:46:00;98961.53;;;5.61;60.40
52651;BME280;38537;47.226;39.702;2023-02-22T03:51:28;98981.91;;;5.65;60.57
52651;BME280;38537;47.226;39.702;2023-02-22T03:53:59;98966.78;;;5.35;60.72
52651;BME280;38537;47.226;39.702;2023-02-22T03:56:38;98985.25;;;5.39;61.21
52651;BME280;38537;47.226;39.702;2023-02-22T03:59:13;98962.56;;;5.24;61.36
52651;BME280;38537;47.226;39.702;2023-02-22T04:01:43;98982.97;;;5.41;61.55
52651;BME280;38537;47.226;39.702;2023-02-22T04:04:10;98989.72;;;5.22;62.46
52651;BME280;38537;47.226;39.702;2023-02-22T04:06:38;98993.44;;;5.31;62.42
52651;BME280;38537;47.226;39.702;2023-02-22T04:09:05;99011.47;;;5.28;62.24
52651;BME280;38537;47.226;39.702;2023-02-22T04:11:35;99007.97;;;5.09;62.56
52651;BME280;38537;47.226;39.702;2023-02-22T04:14:02;98986.75;;;4.91;62.47
52651;BME280;38537;47.226;39.702;2023-02-22T04:16:31;99007.84;;;5.00;62.86
52651;BME280;38537;47.226;39.702;2023-02-22T04:18:59;98991.56;;;4.99;62.26
52651;BME280;38537;47.226;39.702;2023-02-22T04:21:26;99033.16;;;5.07;62.33
52651;BME280;38537;47.226;39.702;2023-02-22T04:23:54;99023.53;;;5.05;62.71
52651;BME280;38537;47.226;39.702;2023-02-22T04:26:22;99047.59;;;5.04;63.39
52651;BME280;38537;47.226;39.702;2023-02-22T04:28:55;99059.56;;;5.00;63.42
52651;BME280;38537;47.226;39.702;2023-02-22T04:31:24;99037.88;;;4.93;63.24
52651;BME280;38537;47.226;39.702;2023-02-22T04:33:53;99046.91;;;5.12;62.53
52651;BME280;38537;47.226;39.702;2023-02-22T04:36:27;99072.13;;;5.11;63.13
52651;BME280;38537;47.226;39.702;2023-02-22T04:38:54;99091.19;;;5.26;62.70
52651;BME280;38537;47.226;39.702;2023-02-22T04:41:21;99076.09;;;5.05;63.55
52651;BME280;38537;47.226;39.702;2023-02-22T04:43:51;99093.16;;;5.26;62.65
52651;BME280;38537;47.226;39.702;2023-02-22T04:46:21;99099.69;;;5.16;63.16
52651;BME280;38537;47.226;39.702;2023-02-22T04:48:50;99084.63;;;5.08;63.48
52651;BME280;38537;47.226;39.702;2023-02-22T04:51:20;99082.13;;;4.93;63.39
52651;BME280;38537;47.226;39.702;2023-02-22T04:53:59;99109.88;;;5.02;63.30
52651;BME280;38537;47.226;39.702;2023-02-22T04:56:27;99122.00;;;5.06;63.67
52651;BME280;38537;47.226;39.702;2023-02-22T04:58:55;99106.72;;;4.95;63.84
52651;BME280;38537;47.226;39.702;2023-02-22T05:01:22;99136.06;;;5.09;63.75
52651;BME280;38537;47.226;39.702;2023-02-22T05:03:49;99143.00;;;5.07;63.88
52651;BME280;38537;47.226;39.702;2023-02-22T05:06:17;99167.31;;;5.10;63.22
52651;BME280;38537;47.226;39.702;2023-02-22T05:08:44;99170.03;;;4.96;63.89
52651;BME280;38537;47.226;39.702;2023-02-22T05:11:12;99165.53;;;4.81;64.50
52651;BME280;38537;47.226;39.702;2023-02-22T05:13:39;99160.69;;;4.73;64.99
52651;BME280;38537;47.226;39.702;2023-02-22T05:16:06;99200.91;;;4.66;65.28
52651;BME280;38537;47.226;39.702;2023-02-22T05:18:33;99200.13;;;4.41;66.68
52651;BME280;38537;47.226;39.702;2023-02-22T05:21:01;99208.44;;;4.18;66.38
52651;BME280;38537;47.226;39.702;2023-02-22T05:23:28;99222.31;;;3.89;66.08
52651;BME280;38537;47.226;39.702;2023-02-22T05:25:55;99231.56;;;3.74;66.62
52651;BME280;38537;47.226;39.702;2023-02-22T05:28:22;99259.91;;;3.51;65.81
52651;BME280;38537;47.226;39.702;2023-02-22T05:30:50;99271.38;;;3.34;66.77
52651;BME280;38537;47.226;39.702;2023-02-22T05:33:19;99269.72;;;2.99;67.01
52651;BME280;38537;47.226;39.702;2023-02-22T05:35:46;99286.59;;;2.82;66.95
52651;BME280;38537;47.226;39.702;2023-02-22T05:38:13;99271.63;;;2.49;66.91
52651;BME280;38537;47.226;39.702;2023-02-22T05:40:41;99293.69;;;2.44;66.67
52651;BME280;38537;47.226;39.702;2023-02-22T05:43:09;99309.66;;;2.42;66.58
52651;BME280;38537;47.226;39.702;2023-02-22T05:45:37;99314.94;;;2.33;66.58
52651;BME280;38537;47.226;39.702;2023-02-22T05:48:04;99303.94;;;2.28;67.14
52651;BME280;38537;47.226;39.702;2023-02-22T05:50:31;99319.34;;;2.34;67.04
52651;BME280;38537;47.226;39.702;2023-02-22T05:53:00;99322.13;;;2.19;66.38
52651;BME280;38537;47.226;39.702;2023-02-22T05:55:27;99315.00;;;1.98;67.35
52651;BME280;38537;47.226;39.702;2023-02-22T05:57:54;99334.56;;;1.96;67.31
52651;BME280;38537;47.226;39.702;2023-02-22T06:00:25;99367.31;;;1.98;68.20
52651;BME280;38537;47.226;39.702;2023-02-22T06:05:22;99378.06;;;1.89;68.57
52651;BME280;38537;47.226;39.702;2023-02-22T06:07:49;99376.41;;;1.88;68.91
52651;BME280;38537;47.226;39.702;2023-02-22T06:10:17;99377.50;;;1.82;69.06
52651;BME280;38537;47.226;39.702;2023-02-22T06:12:45;99402.81;;;1.64;69.47
52651;BME280;38537;47.226;39.702;2023-02-22T06:15:14;99391.50;;;1.45;70.50
52651;BME280;38537;47.226;39.702;2023-02-22T06:17:42;99396.09;;;1.14;71.50
52651;BME280;38537;47.226;39.702;2023-02-22T06:20:11;99385.63;;;1.01;72.79
52651;BME280;38537;47.226;39.702;2023-02-22T06:22:39;99427.09;;;0.94;73.95
52651;BME280;38537;47.226;39.702;2023-02-22T06:25:12;99422.13;;;0.91;74.40
52651;BME280;38537;47.226;39.702;2023-02-22T06:27:41;99442.22;;;0.97;74.62
52651;BME280;38537;47.226;39.702;2023-02-22T06:30:10;99413.34;;;0.89;74.48
52651;BME280;38537;47.226;39.702;2023-02-22T06:32:39;99430.69;;;1.00;74.37
52651;BME280;38537;47.226;39.702;2023-02-22T06:35:06;99413.91;;;0.96;74.69
52651;BME280;38537;47.226;39.702;2023-02-22T06:37:34;99429.88;;;0.99;74.24
52651;BME280;38537;47.226;39.702;2023-02-22T06:40:03;99424.59;;;0.88;74.02
52651;BME280;38537;47.226;39.702;2023-02-22T06:42:31;99455.94;;;0.92;74.47
52651;BME280;38537;47.226;39.702;2023-02-22T06:44:59;99459.22;;;0.84;73.73
52651;BME280;38537;47.226;39.702;2023-02-22T06:47:28;99444.59;;;0.73;73.54
52651;BME280;38537;47.226;39.702;2023-02-22T06:49:57;99484.47;;;0.81;73.87
52651;BME280;38537;47.226;39.702;2023-02-22T06:52:25;99430.56;;;0.69;73.62
52651;BME280;38537;47.226;39.702;2023-02-22T06:54:53;99447.91;;;0.75;73.43
52651;BME280;38537;47.226;39.702;2023-02-22T06:57:23;99488.88;;;0.87;73.46
52651;BME280;38537;47.226;39.702;2023-02-22T06:59:52;99488.22;;;0.64;73.08
52651;BME280;38537;47.226;39.702;2023-02-22T07:02:20;99460.88;;;0.85;72.42
52651;BME280;38537;47.226;39.702;2023-02-22T07:04:47;99471.31;;;0.88;72.34
52651;BME280;38537;47.226;39.702;2023-02-22T07:07:14;99463.06;;;0.83;71.13
52651;BME280;38537;47.226;39.702;2023-02-22T07:09:47;99515.88;;;0.95;70.58
52651;BME280;38537;47.226;39.702;2023-02-22T07:12:14;99525.25;;;0.99;70.41
52651;BME280;38537;47.226;39.702;2023-02-22T07:14:41;99513.13;;;0.95;69.82
52651;BME280;38537;47.226;39.702;2023-02-22T07:17:08;99523.63;;;1.03;69.22
52651;BME280;38537;47.226;39.702;2023-02-22T07:19:37;99537.84;;;0.95;68.63
52651;BME280;38537;47.226;39.702;2023-02-22T07:22:04;99554.38;;;1.00;67.96
52651;BME280;38537;47.226;39.702;2023-02-22T07:24:32;99541.25;;;1.07;67.57
52651;BME280;38537;47.226;39.702;2023-02-22T07:27:01;99555.03;;;1.17;67.76
52651;BME280;38537;47.226;39.702;2023-02-22T07:29:28;99547.03;;;1.16;67.48
52651;BME280;38537;47.226;39.702;2023-02-22T07:31:57;99540.16;;;1.13;67.00
52651;BME280;38537;47.226;39.702;2023-02-22T07:34:24;99571.00;;;1.20;66.35
52651;BME280;38537;47.226;39.702;2023-02-22T07:36:51;99566.50;;;1.09;66.03
52651;BME280;38537;47.226;39.702;2023-02-22T07:39:21;99517.16;;;0.77;65.73
52651;BME280;38537;47.226;39.702;2023-02-22T07:41:48;99564.84;;;1.03;65.30
52651;BME280;38537;47.226;39.702;2023-02-22T07:44:22;99569.69;;;0.91;65.27
52651;BME280;38537;47.226;39.702;2023-02-22T07:46:49;99620.09;;;1.01;65.03
52651;BME280;38537;47.226;39.702;2023-02-22T07:49:17;99571.31;;;0.82;64.85
52651;BME280;38537;47.226;39.702;2023-02-22T07:51:44;99596.13;;;0.97;65.12
52651;BME280;38537;47.226;39.702;2023-02-22T07:54:11;99586.19;;;0.91;65.45
52651;BME280;38537;47.226;39.702;2023-02-22T07:56:48;99608.56;;;1.05;65.04
52651;BME280;38537;47.226;39.702;2023-02-22T07:59:15;99628.06;;;1.03;64.53
52651;BME280;38537;47.226;39.702;2023-02-22T08:01:42;99612.44;;;0.72;64.59
52651;BME280;38537;47.226;39.702;2023-02-22T08:04:10;99607.97;;;0.65;64.71
52651;BME280;38537;47.226;39.702;2023-02-22T08:06:37;99613.41;;;0.55;65.46
52651;BME280;38537;47.226;39.702;2023-02-22T08:09:04;99613.53;;;0.71;65.45
52651;BME280;38537;47.226;39.702;2023-02-22T08:11:31;99618.59;;;0.89;65.40
52651;BME280;38537;47.226;39.702;2023-02-22T08:13:59;99643.91;;;0.91;65.22
52651;BME280;38537;47.226;39.702;2023-02-22T08:16:26;99645.75;;;0.80;65.32
52651;BME280;38537;47.226;39.702;2023-02-22T08:18:54;99634.94;;;0.68;65.90
52651;BME280;38537;47.226;39.702;2023-02-22T08:21:21;99626.66;;;0.63;66.43
52651;BME280;38537;47.226;39.702;2023-02-22T08:23:51;99639.94;;;0.77;66.40
52651;BME280;38537;47.226;39.702;2023-02-22T08:26:24;99641.00;;;0.71;66.46
52651;BME280;38537;47.226;39.702;2023-02-22T08:28:51;99638.00;;;0.45;66.35
52651;BME280;38537;47.226;39.702;2023-02-22T08:31:19;99631.41;;;0.41;67.14
52651;BME280;38537;47.226;39.702;2023-02-22T08:33:47;99675.88;;;0.70;67.09
52651;BME280;38537;47.226;39.702;2023-02-22T08:36:16;99672.78;;;0.61;67.15
52651;BME280;38537;47.226;39.702;2023-02-22T08:38:46;99652.63;;;0.51;67.32
52651;BME280;38537;47.226;39.702;2023-02-22T08:41:24;99692.81;;;0.89;67.29
52651;BME280;38537;47.226;39.702;2023-02-22T08:43:52;99682.16;;;0.97;67.06
52651;BME280;38537;47.226;39.702;2023-02-22T08:46:19;99697.34;;;1.05;66.58
52651;BME280;38537;47.226;39.702;2023-02-22T08:48:56;99710.59;;;1.13;66.83
52651;BME280;38537;47.226;39.702;2023-02-22T08:51:27;99751.72;;;0.98;66.44
52651;BME280;38537;47.226;39.702;2023-02-22T08:53:55;99798.66;;;0.43;65.61
52651;BME280;38537;47.226;39.702;2023-02-22T08:56:22;99768.31;;;0.11;67.04
52651;BME280;38537;47.226;39.702;2023-02-22T08:58:50;99765.94;;;-0.03;67.70
52651;BME280;38537;47.226;39.702;2023-02-22T09:01:18;99801.78;;;-0.09;67.92
52651;BME280;38537;47.226;39.702;2023-02-22T09:03:58;99764.25;;;-0.25;68.24
52651;BME280;38537;47.226;39.702;2023-02-22T09:06:25;99802.78;;;-0.15;67.69
52651;BME280;38537;47.226;39.702;2023-02-22T09:08:56;99789.81;;;-0.20;68.14
52651;BME280;38537;47.226;39.702;2023-02-22T09:11:23;99738.13;;;-0.50;68.09
52651;BME280;38537;47.226;39.702;2023-02-22T09:14:04;99737.94;;;-0.60;67.71
52651;BME280;38537;47.226;39.702;2023-02-22T09:16:33;99768.25;;;-0.33;67.29
52651;BME280;38537;47.226;39.702;2023-02-22T09:19:04;99734.56;;;-0.67;67.59
52651;BME280;38537;47.226;39.702;2023-02-22T09:21:33;99746.16;;;-0.43;67.63
52651;BME280;38537;47.226;39.702;2023-02-22T09:24:01;99828.03;;;0.04;67.60
52651;BME280;38537;47.226;39.702;2023-02-22T09:26:36;99802.91;;;0.12;66.83
52651;BME280;38537;47.226;39.702;2023-02-22T09:29:11;99757.81;;;-0.53;64.94
52651;BME280;38537;47.226;39.702;2023-02-22T09:31:39;99795.94;;;-0.35;62.70
52651;BME280;38537;47.226;39.702;2023-02-22T09:34:08;99852.19;;;-0.15;62.37
52651;BME280;38537;47.226;39.702;2023-02-22T09:36:42;99788.81;;;-0.14;61.99
52651;BME280;38537;47.226;39.702;2023-02-22T09:39:13;99850.72;;;0.16;59.63
52651;BME280;38537;47.226;39.702;2023-02-22T09:47:36;99793.19;;;0.26;60.00
52651;BME280;38537;47.226;39.702;2023-02-22T09:50:22;99817.53;;;0.61;59.51
52651;BME280;38537;47.226;39.702;2023-02-22T09:53:22;99812.06;;;0.88;58.33
52651;BME280;38537;47.226;39.702;2023-02-22T09:56:11;99831.34;;;0.93;57.64
52651;BME280;38537;47.226;39.702;2023-02-22T09:58:55;99830.75;;;0.86;57.13
52651;BME280;38537;47.226;39.702;2023-02-22T10:02:01;99850.53;;;0.88;55.78
52651;BME280;38537;47.226;39.702;2023-02-22T10:04:41;99813.25;;;0.70;56.07
52651;BME280;38537;47.226;39.702;2023-02-22T10:07:31;99845.06;;;1.15;55.09
52651;BME280;38537;47.226;39.702;2023-02-22T10:09:59;99826.34;;;0.85;54.87
52651;BME280;38537;47.226;39.702;2023-02-22T10:12:47;99858.97;;;1.03;54.83
52651;BME280;38537;47.226;39.702;2023-02-22T10:16:10;99872.34;;;0.73;53.91
52651;BME280;38537;47.226;39.702;2023-02-22T10:26:55;99881.59;;;0.45;54.89
52651;BME280;38537;47.226;39.702;2023-02-22T10:29:51;99872.00;;;0.47;54.28
52651;BME280;38537;47.226;39.702;2023-02-22T10:32:28;99858.75;;;0.39;53.62
52651;BME280;38537;47.226;39.702;2023-02-22T10:34:59;99881.63;;;0.28;53.48
52651;BME280;38537;47.226;39.702;2023-02-22T10:37:33;99909.59;;;0.25;53.64
52651;BME280;38537;47.226;39.702;2023-02-22T10:40:16;99927.41;;;0.39;53.13
52651;BME280;38537;47.226;39.702;2023-02-22T10:42:44;99904.00;;;-0.02;53.48
52651;BME280;38537;47.226;39.702;2023-02-22T10:45:24;99909.50;;;0.37;53.91
52651;BME280;38537;47.226;39.702;2023-02-22T10:47:55;99912.78;;;0.55;53.65
52651;BME280;38537;47.226;39.702;2023-02-22T10:50:27;99931.28;;;0.82;52.92
52651;BME280;38537;47.226;39.702;2023-02-22T10:52:56;99912.59;;;0.62;52.28
52651;BME280;38537;47.226;39.702;2023-02-22T10:55:24;99897.13;;;0.56;52.59
52651;BME280;38537;47.226;39.702;2023-02-22T10:58:02;99900.81;;;0.45;52.73
52651;BME280;38537;47.226;39.702;2023-02-22T11:00:38;99929.53;;;-0.02;53.27
52651;BME280;38537;47.226;39.702;2023-02-22T11:03:20;99932.25;;;0.15;53.66
52651;BME280;38537;47.226;39.702;2023-02-22T11:05:49;99977.84;;;-0.01;52.63
52651;BME280;38537;47.226;39.702;2023-02-22T11:10:48;99913.06;;;-0.02;52.96
52651;BME280;38537;47.226;39.702;2023-02-22T11:13:17;99963.84;;;0.34;53.20
52651;BME280;38537;47.226;39.702;2023-02-22T11:15:45;99966.00;;;0.32;52.62
52651;BME280;38537;47.226;39.702;2023-02-22T11:18:32;99915.31;;;0.40;52.32
52651;BME280;38537;47.226;39.702;2023-02-22T11:21:08;99957.06;;;0.59;51.78
52651;BME280;38537;47.226;39.702;2023-02-22T11:23:41;99967.50;;;0.40;51.90
52651;BME280;38537;47.226;39.702;2023-02-22T11:26:16;99948.19;;;0.35;52.51
52651;BME280;38537;47.226;39.702;2023-02-22T11:28:51;99967.81;;;0.44;52.50
52651;BME280;38537;47.226;39.702;2023-02-22T11:31:25;99992.53;;;0.27;52.47
52651;BME280;38537;47.226;39.702;2023-02-22T11:33:55;99985.16;;;0.11;52.74
52651;BME280;38537;47.226;39.702;2023-02-22T11:36:33;99962.94;;;0.12;52.65
52651;BME280;38537;47.226;39.702;2023-02-22T11:39:10;99964.50;;;-0.09;53.21
52651;BME280;38537;47.226;39.702;2023-02-22T11:41:46;99952.38;;;-0.13;53.21
52651;BME280;38537;47.226;39.702;2023-02-22T11:46:50;99978.81;;;-0.07;53.36
52651;BME280;38537;47.226;39.702;2023-02-22T11:49:32;99984.50;;;0.20;54.12
52651;BME280;38537;47.226;39.702;2023-02-22T11:55:01;99990.72;;;-0.01;52.31
52651;BME280;38537;47.226;39.702;2023-02-22T12:00:46;100010.03;;;0.38;52.13
52651;BME280;38537;47.226;39.702;2023-02-22T12:14:31;100018.19;;;0.16;53.70
52651;BME280;38537;47.226;39.702;2023-02-22T12:17:18;99995.50;;;-0.25;53.14
52651;BME280;38537;47.226;39.702;2023-02-22T12:19:50;100044.50;;;-0.45;53.75
52651;BME280;38537;47.226;39.702;2023-02-22T12:22:30;100033.38;;;-0.39;53.72
52651;BME280;38537;47.226;39.702;2023-02-22T12:25:17;100050.66;;;-0.38;54.62
52651;BME280;38537;47.226;39.702;2023-02-22T12:27:57;100042.84;;;-0.58;54.39
52651;BME280;38537;47.226;39.702;2023-02-22T12:30:30;100050.47;;;-0.48;54.56
52651;BME280;38537;47.226;39.702;2023-02-22T12:33:16;100082.94;;;-0.28;54.07
52651;BME280;38537;47.226;39.702;2023-02-22T12:35:52;100053.28;;;-0.43;52.54
52651;BME280;38537;47.226;39.702;2023-02-22T12:38:28;100072.00;;;-0.40;51.31
52651;BME280;38537;47.226;39.702;2023-02-22T12:41:04;100080.22;;;-0.40;51.37
52651;BME280;38537;47.226;39.702;2023-02-22T12:43:52;100112.19;;;-0.34;49.97
52651;BME280;38537;47.226;39.702;2023-02-22T12:46:48;100081.16;;;-0.23;50.13
52651;BME280;38537;47.226;39.702;2023-02-22T12:49:43;100081.34;;;-0.53;49.02
52651;BME280;38537;47.226;39.702;2023-02-22T12:52:43;100098.28;;;-0.56;49.26
52651;BME280;38537;47.226;39.702;2023-02-22T12:55:30;100105.97;;;-0.70;49.92
52651;BME280;38537;47.226;39.702;2023-02-22T12:58:22;100113.31;;;-0.47;50.72
52651;BME280;38537;47.226;39.702;2023-02-22T13:01:06;100081.81;;;-0.44;50.22
52651;BME280;38537;47.226;39.702;2023-02-22T13:03:42;100090.53;;;-0.47;50.04
52651;BME280;38537;47.226;39.702;2023-02-22T13:17:37;100126.81;;;-0.68;51.12
52651;BME280;38537;47.226;39.702;2023-02-22T13:26:02;100125.63;;;-0.73;50.73
52651;BME280;38537;47.226;39.702;2023-02-22T13:37:33;100170.06;;;-0.71;50.78
52651;BME280;38537;47.226;39.702;2023-02-22T13:54:22;100172.31;;;-0.56;51.23
52651;BME280;38537;47.226;39.702;2023-02-22T13:56:56;100169.34;;;-0.54;50.97
52651;BME280;38537;47.226;39.702;2023-02-22T13:59:35;100174.66;;;-0.36;51.27
52651;BME280;38537;47.226;39.702;2023-02-22T14:02:04;100181.75;;;-0.52;50.40
52651;BME280;38537;47.226;39.702;2023-02-22T14:04:36;100185.44;;;-0.46;50.73
52651;BME280;38537;47.226;39.702;2023-02-22T14:20:34;100196.94;;;-1.26;51.93
52651;BME280;38537;47.226;39.702;2023-02-22T14:23:31;100215.44;;;-1.21;51.45
52651;BME280;38537;47.226;39.702;2023-02-22T14:26:11;100209.78;;;-1.38;52.11
52651;BME280;38537;47.226;39.702;2023-02-22T14:28:55;100187.75;;;-1.43;52.21
52651;BME280;38537;47.226;39.702;2023-02-22T14:32:14;100196.09;;;-1.38;52.20
52651;BME280;38537;47.226;39.702;2023-02-22T14:34:46;100221.59;;;-1.38;51.63
52651;BME280;38537;47.226;39.702;2023-02-22T14:37:23;100216.47;;;-1.34;51.79
52651;BME280;38537;47.226;39.702;2023-02-22T14:40:01;100212.47;;;-1.50;51.51
52651;BME280;38537;47.226;39.702;2023-02-22T14:42:50;100215.81;;;-1.59;52.01
52651;BME280;38537;47.226;39.702;2023-02-22T14:45:22;100215.50;;;-1.40;52.22
52651;BME280;38537;47.226;39.702;2023-02-22T14:47:53;100235.53;;;-1.27;52.45
52651;BME280;38537;47.226;39.702;2023-02-22T14:50:36;100230.94;;;-1.15;51.98
52651;BME280;38537;47.226;39.702;2023-02-22T14:53:30;100245.69;;;-1.16;51.61
52651;BME280;38537;47.226;39.702;2023-02-22T14:56:08;100215.13;;;-1.43;51.39
52651;BME280;38537;47.226;39.702;2023-02-22T14:58:48;100234.34;;;-1.31;51.88
52651;BME280;38537;47.226;39.702;2023-02-22T15:03:46;100254.59;;;-1.32;52.24
52651;BME280;38537;47.226;39.702;2023-02-22T15:06:26;100247.06;;;-1.67;51.84
52651;BME280;38537;47.226;39.702;2023-02-22T15:09:12;100265.06;;;-1.59;52.07
52651;BME280;38537;47.226;39.702;2023-02-22T15:11:40;100266.50;;;-1.57;52.30
52651;BME280;38537;47.226;39.702;2023-02-22T15:14:21;100281.31;;;-1.76;51.94
52651;BME280;38537;47.226;39.702;2023-02-22T15:16:55;100265.59;;;-1.99;52.49
52651;BME280;38537;47.226;39.702;2023-02-22T15:19:32;100285.84;;;-1.88;53.19
52651;BME280;38537;47.226;39.702;2023-02-22T15:22:01;100261.69;;;-1.91;53.08
52651;BME280;38537;47.226;39.702;2023-02-22T15:24:33;100276.97;;;-1.84;53.34
52651;BME280;38537;47.226;39.702;2023-02-22T15:27:13;100295.28;;;-1.84;52.74
52651;BME280;38537;47.226;39.702;2023-02-22T15:29:43;100277.66;;;-2.07;53.07
52651;BME280;38537;47.226;39.702;2023-02-22T15:34:54;100261.53;;;-2.33;53.32
52651;BME280;38537;47.226;39.702;2023-02-22T15:37:23;100283.53;;;-2.21;53.55